Terminal Aerodrome Forecast
Issued by NWS

Home | Current Version | Previous Version | Text Only | Print | Product List | Glossary On
Versions: 1 2 3 4 5 6 7 8 9 10 11 12 13 14
000
FTUS42 TJSJ 251722
TAFJSJ
TAF
TJSJ 251722Z 2518/2618 06017G24KT P6SM FEW017 SCT035
     FM252330 08006KT P6SM VCSH SCT025
     FM260500 12004KT P6SM SCT030
     FM261330 06017G24KT P6SM FEW017 SCT030=

USA.gov is the U.S. government's official web portal to all federal, state and local government web resources and services.